Time;durP1;ratioP1;P1;durP2;ratioP2;P2;SDS_P1;SDS_P2;PMS_P1;PMS_P2;Temp;Humidity;BMP_temperature;BMP_pressure;BME280_temperature;BME280_humidity;BME280_pressure;Samples;Min_cycle;Max_cycle;Signal;HPM_P1;HPM_P2
2021/10/07 00:01:07;;;;;;;1.92;1.10;;;;;;;;;;4993658;28;20124;-43
2021/10/07 00:03:50;;;;;;;4.00;1.13;;;;;;;;;;4992537;28;20389;-46
2021/10/07 00:06:17;;;;;;;2.13;1.52;;;;;;;;;;4992827;28;20053;-44
2021/10/07 00:08:43;;;;;;;2.20;1.20;;;;;;;;;;5008630;28;20042;-44
2021/10/07 00:11:12;;;;;;;1.67;0.88;;;;;;;;;;4992632;28;20046;-44
2021/10/07 00:13:39;;;;;;;3.63;1.20;;;;;;;;;;5005068;28;20108;-44
2021/10/07 00:16:06;;;;;;;4.68;1.30;;;;;;;;;;5010132;28;20488;-46
2021/10/07 00:18:37;;;;;;;1.65;1.05;;;;;;;;;;5011203;28;20037;-44
2021/10/07 00:21:05;;;;;;;3.05;1.38;;;;;;;;;;5010105;28;20074;-45
2021/10/07 00:24:14;;;;;;;1.52;0.90;;;;;;;;;;5010296;28;20460;-43
2021/10/07 00:26:21;;;;;;;1.75;1.00;;;;;;;;;;5006945;28;20420;-43
2021/10/07 00:28:48;;;;;;;2.03;1.02;;;;;;;;;;5011283;28;20124;-44
2021/10/07 00:31:22;;;;;;;2.38;1.08;;;;;;;;;;5003811;28;20430;-48
2021/10/07 00:39:04;;;;;;;2.10;1.10;;;;;;;;;;5011251;28;20034;-44
2021/10/07 00:41:32;;;;;;;2.10;1.45;;;;;;;;;;5011633;28;20050;-45
2021/10/07 00:44:05;;;;;;;2.13;1.05;;;;;;;;;;5010049;28;20088;-42
2021/10/07 00:46:44;;;;;;;2.80;0.90;;;;;;;;;;5010592;28;20072;-42
2021/10/07 00:49:10;;;;;;;2.10;1.20;;;;;;;;;;5007588;28;20046;-42
2021/10/07 00:51:37;;;;;;;0.98;0.90;;;;;;;;;;4992178;28;20047;-46
2021/10/07 00:54:04;;;;;;;3.10;1.30;;;;;;;;;;5026082;28;20100;-43
2021/10/07 00:56:31;;;;;;;3.05;1.15;;;;;;;;;;5011289;28;20048;-43
2021/10/07 00:58:58;;;;;;;1.58;1.10;;;;;;;;;;5011071;28;20053;-42
2021/10/07 01:01:24;;;;;;;2.20;1.05;;;;;;;;;;5011299;28;20418;-42
2021/10/07 01:03:51;;;;;;;1.80;1.00;;;;;;;;;;5010504;28;20046;-42
2021/10/07 01:06:18;;;;;;;1.80;0.95;;;;;;;;;;5005740;28;20038;-44
2021/10/07 01:08:46;;;;;;;3.17;1.08;;;;;;;;;;5001137;28;20524;-42
2021/10/07 01:11:14;;;;;;;3.75;1.55;;;;;;;;;;5010582;28;20050;-43
2021/10/07 01:13:41;;;;;;;4.05;1.13;;;;;;;;;;5010723;28;20586;-44
2021/10/07 01:16:08;;;;;;;3.90;1.27;;;;;;;;;;5003202;28;20042;-42
2021/10/07 01:18:35;;;;;;;1.95;1.10;;;;;;;;;;5011515;28;20064;-43
2021/10/07 01:21:02;;;;;;;2.75;1.00;;;;;;;;;;5026181;28;20499;-44
2021/10/07 01:23:29;;;;;;;2.00;1.23;;;;;;;;;;5009924;28;20108;-45
2021/10/07 01:25:56;;;;;;;3.80;0.98;;;;;;;;;;5010384;28;20137;-44
2021/10/07 01:28:23;;;;;;;1.92;1.17;;;;;;;;;;5010899;28;20133;-44
2021/10/07 01:30:49;;;;;;;2.08;0.90;;;;;;;;;;4995070;28;20052;-43
2021/10/07 01:33:16;;;;;;;1.98;1.02;;;;;;;;;;5002007;28;20038;-45
2021/10/07 01:35:43;;;;;;;1.90;1.05;;;;;;;;;;5010538;28;20480;-42
2021/10/07 01:38:09;;;;;;;1.90;1.13;;;;;;;;;;5010464;28;20406;-45
2021/10/07 01:40:36;;;;;;;3.03;1.05;;;;;;;;;;5010740;28;20042;-44
2021/10/07 01:43:03;;;;;;;2.92;1.10;;;;;;;;;;5013358;28;20045;-45
2021/10/07 01:45:30;;;;;;;1.90;1.00;;;;;;;;;;5014186;28;20042;-46
2021/10/07 01:47:57;;;;;;;2.05;1.02;;;;;;;;;;5014338;28;20049;-42
2021/10/07 01:50:24;;;;;;;1.27;0.90;;;;;;;;;;5014505;28;20077;-44
2021/10/07 01:52:51;;;;;;;1.90;0.85;;;;;;;;;;5013927;28;20053;-43
2021/10/07 01:55:18;;;;;;;1.42;1.02;;;;;;;;;;5013014;28;20402;-42
2021/10/07 01:57:44;;;;;;;2.35;0.73;;;;;;;;;;5013981;28;20042;-44
2021/10/07 02:00:12;;;;;;;2.05;0.90;;;;;;;;;;5003235;28;20153;-44
2021/10/07 02:02:40;;;;;;;1.77;1.02;;;;;;;;;;5026800;28;20072;-43
2021/10/07 02:05:07;;;;;;;1.65;0.80;;;;;;;;;;5014154;28;20092;-42
2021/10/07 02:07:34;;;;;;;1.58;0.80;;;;;;;;;;5014024;28;20494;-44
2021/10/07 02:10:01;;;;;;;2.25;1.05;;;;;;;;;;5014362;28;20061;-43
2021/10/07 02:12:28;;;;;;;2.95;0.90;;;;;;;;;;5013247;28;20117;-42
2021/10/07 02:14:54;;;;;;;2.63;0.90;;;;;;;;;;5013530;28;20084;-42
2021/10/07 02:17:21;;;;;;;3.03;0.98;;;;;;;;;;5013545;28;20046;-47
2021/10/07 02:19:48;;;;;;;1.95;1.13;;;;;;;;;;5014144;28;20046;-43
2021/10/07 02:22:15;;;;;;;1.45;0.88;;;;;;;;;;5013063;28;20042;-42
2021/10/07 02:24:41;;;;;;;4.75;1.10;;;;;;;;;;5013285;28;20042;-45
2021/10/07 02:27:08;;;;;;;1.83;1.00;;;;;;;;;;5012608;28;20072;-42
2021/10/07 02:29:35;;;;;;;1.23;0.80;;;;;;;;;;5013411;28;20517;-42
2021/10/07 02:32:02;;;;;;;1.33;1.10;;;;;;;;;;5014155;28;20478;-42
2021/10/07 02:34:29;;;;;;;5.53;1.17;;;;;;;;;;5012766;28;20126;-43
2021/10/07 02:36:56;;;;;;;1.83;1.25;;;;;;;;;;5013120;28;20165;-43
2021/10/07 02:39:23;;;;;;;1.00;0.80;;;;;;;;;;5013157;28;20125;-43
2021/10/07 02:41:49;;;;;;;4.03;1.00;;;;;;;;;;5013495;28;20050;-45
2021/10/07 02:44:16;;;;;;;1.65;0.85;;;;;;;;;;5013120;28;20038;-44
2021/10/07 02:46:43;;;;;;;2.67;0.88;;;;;;;;;;5013311;28;20049;-47
2021/10/07 02:49:10;;;;;;;2.75;0.90;;;;;;;;;;5013692;28;20571;-43
2021/10/07 02:51:36;;;;;;;1.85;1.00;;;;;;;;;;5013763;28;20076;-45
2021/10/07 02:54:03;;;;;;;2.10;0.88;;;;;;;;;;5011663;28;20418;-44
2021/10/07 02:56:30;;;;;;;1.65;0.90;;;;;;;;;;5013772;28;20038;-43
2021/10/07 02:58:57;;;;;;;2.08;1.02;;;;;;;;;;5011395;28;20034;-44
2021/10/07 03:01:26;;;;;;;1.42;0.95;;;;;;;;;;4994120;28;20480;-44
2021/10/07 03:03:53;;;;;;;1.45;1.00;;;;;;;;;;5011181;28;20034;-45
2021/10/07 03:06:20;;;;;;;2.97;0.93;;;;;;;;;;5014456;28;20165;-42
2021/10/07 03:08:48;;;;;;;3.15;1.00;;;;;;;;;;5012837;28;20049;-45
2021/10/07 03:11:15;;;;;;;4.35;1.00;;;;;;;;;;5013283;28;20044;-43
2021/10/07 03:13:42;;;;;;;3.88;1.05;;;;;;;;;;5012712;28;20591;-46
2021/10/07 03:16:09;;;;;;;1.42;0.98;;;;;;;;;;5010905;28;20046;-47
2021/10/07 03:18:36;;;;;;;1.27;0.90;;;;;;;;;;5013133;28;20045;-42
2021/10/07 03:21:03;;;;;;;1.55;1.00;;;;;;;;;;5011461;28;20112;-43
2021/10/07 03:23:30;;;;;;;2.58;1.00;;;;;;;;;;5012298;28;20041;-45
2021/10/07 03:25:56;;;;;;;3.78;0.85;;;;;;;;;;5012358;28;20038;-43
2021/10/07 03:28:23;;;;;;;2.65;1.10;;;;;;;;;;5012281;28;20042;-45
2021/10/07 03:30:50;;;;;;;2.85;1.08;;;;;;;;;;5012650;28;20050;-45
2021/10/07 03:33:17;;;;;;;2.55;1.10;;;;;;;;;;5011927;28;20551;-43
2021/10/07 03:35:43;;;;;;;3.05;1.20;;;;;;;;;;5012381;28;20466;-43
2021/10/07 03:38:10;;;;;;;2.63;1.40;;;;;;;;;;5001917;28;20037;-43
2021/10/07 03:40:37;;;;;;;3.20;1.10;;;;;;;;;;5012855;28;20103;-44
2021/10/07 03:43:04;;;;;;;1.33;1.02;;;;;;;;;;5011876;28;20153;-42
2021/10/07 03:45:31;;;;;;;1.83;1.00;;;;;;;;;;5011726;28;20116;-43
2021/10/07 03:47:57;;;;;;;1.65;0.95;;;;;;;;;;5011493;28;20050;-44
2021/10/07 03:50:25;;;;;;;2.53;1.00;;;;;;;;;;5012453;28;20438;-44
2021/10/07 03:52:51;;;;;;;1.10;0.90;;;;;;;;;;5012338;28;20100;-42
2021/10/07 03:55:18;;;;;;;2.17;1.25;;;;;;;;;;5009718;28;20052;-42
2021/10/07 03:57:45;;;;;;;3.00;1.10;;;;;;;;;;5012464;28;20052;-42
2021/10/07 04:00:12;;;;;;;6.85;1.20;;;;;;;;;;5011547;28;20084;-44
2021/10/07 04:02:39;;;;;;;2.60;1.10;;;;;;;;;;5011865;28;20030;-47
2021/10/07 04:05:06;;;;;;;2.00;1.08;;;;;;;;;;5009820;28;20042;-45
2021/10/07 04:07:33;;;;;;;1.90;1.13;;;;;;;;;;4992829;28;20565;-44
2021/10/07 04:10:00;;;;;;;3.28;1.00;;;;;;;;;;5012374;28;20038;-43
2021/10/07 04:12:27;;;;;;;1.52;0.95;;;;;;;;;;5011854;28;20073;-44
2021/10/07 04:14:54;;;;;;;2.95;1.27;;;;;;;;;;5011834;28;20053;-42
2021/10/07 04:17:21;;;;;;;3.60;1.23;;;;;;;;;;5011452;28;20110;-43
2021/10/07 04:19:47;;;;;;;2.58;1.30;;;;;;;;;;5011526;28;20053;-47
2021/10/07 04:22:14;;;;;;;1.75;1.02;;;;;;;;;;5012174;28;20566;-42
2021/10/07 04:24:41;;;;;;;1.98;1.10;;;;;;;;;;5010917;28;20048;-42
2021/10/07 04:27:08;;;;;;;2.58;1.02;;;;;;;;;;5011442;28;20132;-45
2021/10/07 04:29:34;;;;;;;2.97;1.00;;;;;;;;;;5005462;28;20042;-45
2021/10/07 04:32:01;;;;;;;2.22;1.10;;;;;;;;;;5011325;28;20046;-45
2021/10/07 04:34:28;;;;;;;2.90;1.13;;;;;;;;;;5010422;28;20049;-45
2021/10/07 04:36:55;;;;;;;1.73;1.13;;;;;;;;;;5011073;28;20155;-45
2021/10/07 04:39:21;;;;;;;2.78;1.20;;;;;;;;;;5011685;28;20401;-44
2021/10/07 04:41:48;;;;;;;5.38;1.80;;;;;;;;;;5011204;28;20483;-47
2021/10/07 04:44:15;;;;;;;2.00;1.10;;;;;;;;;;5011188;28;20081;-46
2021/10/07 04:46:42;;;;;;;3.67;1.50;;;;;;;;;;5010899;28;20506;-45
2021/10/07 04:49:09;;;;;;;2.28;1.27;;;;;;;;;;5001057;28;20073;-44
2021/10/07 04:51:35;;;;;;;3.53;1.33;;;;;;;;;;5011294;28;20517;-46
2021/10/07 04:54:02;;;;;;;2.03;1.33;;;;;;;;;;5010480;28;20053;-44
2021/10/07 04:56:29;;;;;;;3.00;1.45;;;;;;;;;;5005980;28;20046;-45
2021/10/07 04:58:56;;;;;;;3.17;1.80;;;;;;;;;;5011764;28;20029;-46
2021/10/07 05:01:23;;;;;;;4.68;1.50;;;;;;;;;;5026203;28;20120;-44
2021/10/07 05:03:50;;;;;;;4.10;1.30;;;;;;;;;;5010852;28;20034;-43
2021/10/07 05:06:17;;;;;;;4.35;1.48;;;;;;;;;;5009834;28;20053;-43
2021/10/07 05:08:44;;;;;;;4.85;1.77;;;;;;;;;;5011036;28;20149;-45
2021/10/07 05:11:10;;;;;;;2.10;1.40;;;;;;;;;;5010441;28;20065;-46
2021/10/07 05:13:37;;;;;;;2.80;1.50;;;;;;;;;;5010639;28;20042;-44
2021/10/07 05:16:04;;;;;;;2.38;1.30;;;;;;;;;;5010821;28;20041;-47
2021/10/07 05:18:31;;;;;;;2.63;1.50;;;;;;;;;;5015250;28;20046;-47
2021/10/07 05:20:58;;;;;;;3.53;2.50;;;;;;;;;;5014736;28;20403;-45
2021/10/07 05:23:25;;;;;;;3.92;1.27;;;;;;;;;;5015721;28;20050;-45
2021/10/07 05:25:52;;;;;;;2.50;1.33;;;;;;;;;;5013872;28;20133;-44
2021/10/07 05:28:19;;;;;;;5.63;2.58;;;;;;;;;;5015756;28;20073;-44
2021/10/07 05:30:45;;;;;;;5.80;2.53;;;;;;;;;;5014217;28;20054;-44
2021/10/07 05:33:12;;;;;;;2.95;1.30;;;;;;;;;;5013724;28;20037;-45
2021/10/07 05:35:39;;;;;;;2.72;1.42;;;;;;;;;;5014083;28;20084;-45
2021/10/07 05:38:06;;;;;;;3.60;1.33;;;;;;;;;;5014027;28;20128;-44
2021/10/07 05:40:33;;;;;;;5.03;1.88;;;;;;;;;;5012747;28;20092;-45
2021/10/07 05:42:59;;;;;;;5.30;1.65;;;;;;;;;;5029174;28;20504;-44
2021/10/07 05:45:26;;;;;;;2.38;1.40;;;;;;;;;;5013343;28;20145;-44
2021/10/07 05:47:53;;;;;;;3.15;1.50;;;;;;;;;;5014258;28;20066;-44
2021/10/07 05:50:20;;;;;;;5.32;1.48;;;;;;;;;;5013396;28;20050;-49
2021/10/07 05:52:46;;;;;;;4.35;1.58;;;;;;;;;;5014034;28;20484;-44
2021/10/07 05:55:17;;;;;;;3.13;1.63;;;;;;;;;;5012871;28;20034;-44
2021/10/07 05:57:44;;;;;;;3.40;1.45;;;;;;;;;;5010394;28;20052;-45
2021/10/07 06:00:12;;;;;;;4.78;1.90;;;;;;;;;;5007697;28;20399;-46
2021/10/07 06:02:39;;;;;;;2.83;1.55;;;;;;;;;;5012169;28;20388;-44
2021/10/07 06:05:06;;;;;;;2.97;1.70;;;;;;;;;;5004048;28;20038;-44
2021/10/07 06:07:33;;;;;;;5.45;1.85;;;;;;;;;;5013469;28;20535;-43
2021/10/07 06:10:00;;;;;;;4.03;2.20;;;;;;;;;;5012867;28;20044;-43
2021/10/07 06:12:27;;;;;;;4.57;1.70;;;;;;;;;;5013880;28;20054;-44
2021/10/07 06:14:54;;;;;;;7.20;1.85;;;;;;;;;;5012379;28;20111;-43
2021/10/07 06:17:21;;;;;;;3.67;1.73;;;;;;;;;;5007298;28;20050;-46
2021/10/07 06:19:50;;;;;;;3.40;1.73;;;;;;;;;;5012894;28;20044;-45
2021/10/07 06:22:17;;;;;;;3.92;1.83;;;;;;;;;;5012498;28;20053;-44
2021/10/07 06:24:44;;;;;;;5.43;1.60;;;;;;;;;;5010893;28;20042;-42
2021/10/07 06:27:10;;;;;;;5.65;1.80;;;;;;;;;;5022817;28;20038;-47
2021/10/07 06:29:37;;;;;;;4.43;1.60;;;;;;;;;;5026026;28;20042;-42
2021/10/07 06:32:04;;;;;;;4.30;1.88;;;;;;;;;;5012938;28;20057;-43
2021/10/07 06:34:31;;;;;;;5.72;2.10;;;;;;;;;;5010341;28;20141;-43
2021/10/07 06:36:58;;;;;;;8.63;2.40;;;;;;;;;;5011935;28;20484;-44
2021/10/07 06:39:24;;;;;;;4.95;2.22;;;;;;;;;;5001274;28;20101;-43
2021/10/07 06:41:51;;;;;;;4.30;1.90;;;;;;;;;;5034379;22;20591;-46
2021/10/07 06:44:21;;;;;;;4.80;1.90;;;;;;;;;;5001192;28;20038;-46
2021/10/07 06:46:48;;;;;;;3.85;1.90;;;;;;;;;;5032736;28;20034;-43
2021/10/07 06:49:14;;;;;;;5.75;2.22;;;;;;;;;;5027976;28;20117;-43
2021/10/07 06:51:41;;;;;;;5.10;2.10;;;;;;;;;;5028180;28;20061;-48
2021/10/07 06:54:08;;;;;;;6.65;2.13;;;;;;;;;;5030269;28;20128;-42
2021/10/07 06:56:35;;;;;;;5.85;2.28;;;;;;;;;;5032849;28;20095;-43
2021/10/07 06:59:02;;;;;;;5.47;2.30;;;;;;;;;;5029213;28;20137;-45
2021/10/07 07:01:29;;;;;;;3.92;2.42;;;;;;;;;;5013710;28;20067;-43
2021/10/07 07:03:56;;;;;;;7.00;2.20;;;;;;;;;;5030967;28;20091;-44
2021/10/07 07:06:24;;;;;;;4.20;2.22;;;;;;;;;;5032917;28;20120;-43
2021/10/07 07:08:51;;;;;;;6.60;2.60;;;;;;;;;;5028869;28;20049;-43
2021/10/07 07:11:18;;;;;;;3.75;2.20;;;;;;;;;;5031628;28;20044;-44
2021/10/07 07:13:45;;;;;;;4.22;2.13;;;;;;;;;;5030211;28;20115;-43
2021/10/07 07:16:12;;;;;;;4.00;2.40;;;;;;;;;;5029691;28;20051;-45
2021/10/07 07:18:40;;;;;;;5.43;2.60;;;;;;;;;;5020468;28;20048;-41
2021/10/07 07:21:08;;;;;;;6.35;2.70;;;;;;;;;;5032314;28;20552;-46
2021/10/07 07:23:34;;;;;;;5.95;2.50;;;;;;;;;;5029976;28;20487;-48
2021/10/07 07:26:01;;;;;;;3.97;2.55;;;;;;;;;;5029353;28;20128;-46
2021/10/07 07:28:28;;;;;;;5.30;2.30;;;;;;;;;;5031735;28;20095;-45
2021/10/07 07:30:55;;;;;;;5.65;2.40;;;;;;;;;;5030186;28;20122;-46
2021/10/07 07:33:25;;;;;;;4.35;2.70;;;;;;;;;;5030008;28;20129;-43
2021/10/07 07:35:51;;;;;;;4.97;2.70;;;;;;;;;;5030523;28;20124;-46
2021/10/07 07:38:18;;;;;;;5.65;2.85;;;;;;;;;;5029938;28;20041;-44
2021/10/07 07:40:45;;;;;;;6.80;2.70;;;;;;;;;;5031384;28;20042;-44
2021/10/07 07:43:19;;;;;;;5.20;2.30;;;;;;;;;;5029613;28;20382;-43
2021/10/07 07:45:49;;;;;;;4.20;2.40;;;;;;;;;;5031682;28;20100;-46
2021/10/07 07:48:17;;;;;;;5.00;2.42;;;;;;;;;;5028798;28;20053;-45
2021/10/07 07:50:43;;;;;;;5.65;2.70;;;;;;;;;;5031667;28;20092;-44
2021/10/07 07:53:10;;;;;;;5.68;2.50;;;;;;;;;;5027603;28;20045;-45
2021/10/07 07:55:37;;;;;;;5.30;2.40;;;;;;;;;;5025881;28;20057;-44
2021/10/07 07:58:04;;;;;;;4.07;2.47;;;;;;;;;;5042094;28;20041;-48
2021/10/07 08:00:31;;;;;;;6.55;2.90;;;;;;;;;;5029529;28;20116;-45
2021/10/07 08:02:58;;;;;;;5.28;3.00;;;;;;;;;;5030182;28;20387;-43
2021/10/07 08:05:25;;;;;;;8.30;3.15;;;;;;;;;;5029538;28;20033;-44
2021/10/07 08:07:52;;;;;;;4.40;2.97;;;;;;;;;;5019134;28;20136;-44
2021/10/07 08:10:38;;;;;;;5.60;3.05;;;;;;;;;;5029181;28;20517;-45
2021/10/07 08:13:05;;;;;;;7.20;3.50;;;;;;;;;;5027350;28;20083;-45
2021/10/07 08:15:31;;;;;;;7.40;3.17;;;;;;;;;;5031117;28;20042;-45
2021/10/07 08:17:58;;;;;;;4.88;2.90;;;;;;;;;;5023689;28;20048;-45
2021/10/07 08:20:25;;;;;;;6.50;3.35;;;;;;;;;;5029178;28;20038;-43
2021/10/07 08:22:52;;;;;;;6.28;2.97;;;;;;;;;;5028408;28;20421;-45
2021/10/07 08:25:21;;;;;;;4.85;2.97;;;;;;;;;;5025201;28;20046;-43
2021/10/07 08:27:47;;;;;;;5.90;3.03;;;;;;;;;;5026893;28;20055;-43
2021/10/07 08:30:15;;;;;;;5.70;3.13;;;;;;;;;;5026929;28;20120;-42
2021/10/07 08:32:42;;;;;;;4.55;3.05;;;;;;;;;;5019362;28;20160;-43
2021/10/07 08:35:09;;;;;;;6.75;3.40;;;;;;;;;;5028840;28;20060;-45
2021/10/07 08:37:37;;;;;;;6.50;3.50;;;;;;;;;;5028517;28;20100;-43
2021/10/07 08:40:05;;;;;;;6.93;3.70;;;;;;;;;;5021006;28;20104;-44
2021/10/07 08:42:32;;;;;;;9.10;3.60;;;;;;;;;;5027333;28;20125;-42
2021/10/07 08:45:01;;;;;;;5.95;3.50;;;;;;;;;;5030505;28;20124;-46
2021/10/07 08:47:29;;;;;;;6.47;3.15;;;;;;;;;;5024771;28;20041;-44
2021/10/07 08:49:56;;;;;;;6.00;3.67;;;;;;;;;;5028430;28;20048;-46
2021/10/07 08:52:23;;;;;;;7.85;3.33;;;;;;;;;;5032861;28;20063;-45
2021/10/07 08:54:50;;;;;;;8.40;3.63;;;;;;;;;;5033109;28;20387;-44
2021/10/07 08:57:18;;;;;;;5.20;2.90;;;;;;;;;;5028531;28;20065;-45
2021/10/07 08:59:45;;;;;;;7.80;3.42;;;;;;;;;;5027928;28;20088;-46
2021/10/07 09:02:33;;;;;;;27.23;4.63;;;;;;;;;;5034283;28;20388;-45
2021/10/07 09:05:22;;;;;;;6.50;2.95;;;;;;;;;;5032549;28;20472;-46
2021/10/07 09:07:53;;;;;;;4.75;2.72;;;;;;;;;;5026065;28;20042;-47
2021/10/07 09:10:20;;;;;;;3.97;2.50;;;;;;;;;;5024657;28;20048;-47
2021/10/07 09:13:16;;;;;;;6.30;3.10;;;;;;;;;;5033187;28;20060;-43
2021/10/07 09:15:44;;;;;;;6.78;3.10;;;;;;;;;;5014502;28;20050;-45
2021/10/07 09:18:11;;;;;;;6.00;3.45;;;;;;;;;;5032245;28;20490;-45
2021/10/07 09:20:40;;;;;;;6.05;3.20;;;;;;;;;;5021115;28;20038;-44
2021/10/07 09:23:08;;;;;;;5.78;2.75;;;;;;;;;;5026539;28;20101;-45
2021/10/07 09:25:54;;;;;;;4.40;2.50;;;;;;;;;;5033460;28;20034;-44
2021/10/07 09:28:21;;;;;;;7.45;3.33;;;;;;;;;;5032203;28;20076;-43
2021/10/07 09:30:54;;;;;;;4.63;3.03;;;;;;;;;;5032485;28;20125;-45
2021/10/07 09:33:37;;;;;;;7.00;3.35;;;;;;;;;;5030275;28;20231;-44
2021/10/07 09:36:11;;;;;;;8.48;2.97;;;;;;;;;;5018949;28;20120;-43
2021/10/07 09:38:37;;;;;;;8.55;3.28;;;;;;;;;;5032002;28;20038;-45
2021/10/07 09:41:11;;;;;;;6.22;3.20;;;;;;;;;;5030843;28;20033;-44
2021/10/07 09:43:52;;;;;;;5.32;3.47;;;;;;;;;;5032895;28;20050;-44
2021/10/07 09:46:38;;;;;;;9.00;3.35;;;;;;;;;;5032826;28;20033;-45
2021/10/07 09:49:16;;;;;;;5.85;3.63;;;;;;;;;;5030503;28;20045;-45
2021/10/07 09:51:43;;;;;;;6.22;3.63;;;;;;;;;;5032925;28;20391;-44
2021/10/07 09:54:10;;;;;;;7.28;3.60;;;;;;;;;;5032918;28;20166;-44
2021/10/07 09:56:36;;;;;;;6.53;3.85;;;;;;;;;;5011538;28;20046;-43
2021/10/07 09:59:04;;;;;;;5.78;3.65;;;;;;;;;;5018920;28;20445;-44
2021/10/07 10:01:31;;;;;;;5.82;3.40;;;;;;;;;;5032328;28;20117;-46
2021/10/07 10:03:58;;;;;;;5.03;3.67;;;;;;;;;;5032850;28;20033;-42
2021/10/07 10:06:25;;;;;;;7.40;3.88;;;;;;;;;;5031515;28;20092;-42
2021/10/07 10:08:52;;;;;;;7.25;3.30;;;;;;;;;;5028279;28;20502;-43
2021/10/07 10:11:19;;;;;;;5.75;3.50;;;;;;;;;;5031365;28;20451;-43
2021/10/07 10:13:47;;;;;;;4.03;3.25;;;;;;;;;;5030064;28;20050;-43
2021/10/07 10:16:17;;;;;;;5.35;3.35;;;;;;;;;;5031933;28;20125;-43
2021/10/07 10:18:52;;;;;;;10.07;3.72;;;;;;;;;;5034029;28;20514;-47
2021/10/07 10:21:21;;;;;;;6.28;3.80;;;;;;;;;;5019678;28;20498;-44
2021/10/07 10:23:48;;;;;;;6.35;5.10;;;;;;;;;;5061403;28;20042;-48
2021/10/07 10:26:15;;;;;;;8.68;5.22;;;;;;;;;;5002105;28;20042;-43
2021/10/07 10:28:45;;;;;;;6.65;4.95;;;;;;;;;;5029424;28;20064;-43
2021/10/07 10:31:30;;;;;;;6.35;5.18;;;;;;;;;;5021657;28;20038;-43
2021/10/07 10:34:03;;;;;;;7.80;5.97;;;;;;;;;;5030944;28;20467;-43
2021/10/07 10:36:34;;;;;;;6.78;5.40;;;;;;;;;;5031739;28;20132;-43
2021/10/07 10:39:13;;;;;;;8.05;5.63;;;;;;;;;;4997926;28;20409;-46
2021/10/07 10:41:49;;;;;;;7.80;5.85;;;;;;;;;;5028554;28;20494;-42
2021/10/07 10:44:28;;;;;;;7.70;6.10;;;;;;;;;;5007226;28;20125;-42
2021/10/07 10:46:59;;;;;;;9.20;6.28;;;;;;;;;;5031322;28;20046;-46
2021/10/07 10:49:35;;;;;;;8.10;6.55;;;;;;;;;;5029710;28;20043;-46
2021/10/07 10:52:14;;;;;;;8.75;6.22;;;;;;;;;;5031302;28;20056;-43
2021/10/07 10:54:45;;;;;;;7.28;6.22;;;;;;;;;;5042333;28;20074;-46
2021/10/07 10:57:27;;;;;;;9.60;6.47;;;;;;;;;;5009468;28;20147;-43
2021/10/07 11:00:17;;;;;;;10.20;6.43;;;;;;;;;;5026947;28;20041;-46
2021/10/07 11:02:46;;;;;;;8.88;6.15;;;;;;;;;;5011319;28;20103;-43
2021/10/07 11:05:29;;;;;;;7.40;6.63;;;;;;;;;;5032580;28;20033;-44
2021/10/07 11:08:11;;;;;;;6.85;6.15;;;;;;;;;;5030430;28;20116;-44
2021/10/07 11:10:58;;;;;;;8.93;6.00;;;;;;;;;;5014032;28;20111;-43
2021/10/07 11:13:33;;;;;;;7.15;6.45;;;;;;;;;;5031581;28;20042;-44
2021/10/07 11:16:05;;;;;;;8.00;6.13;;;;;;;;;;5030934;28;20111;-47
2021/10/07 11:18:35;;;;;;;7.90;5.70;;;;;;;;;;5022900;28;20045;-45
2021/10/07 11:21:06;;;;;;;7.10;5.85;;;;;;;;;;5031935;28;20506;-47
2021/10/07 11:23:35;;;;;;;10.10;5.90;;;;;;;;;;5030036;28;20049;-49
2021/10/07 11:26:02;;;;;;;7.78;5.68;;;;;;;;;;5030749;28;20059;-49
2021/10/07 11:28:32;;;;;;;8.18;5.38;;;;;;;;;;5032642;28;20100;-46
2021/10/07 11:30:58;;;;;;;8.20;5.20;;;;;;;;;;5024059;28;20136;-45
2021/10/07 11:33:27;;;;;;;6.68;5.10;;;;;;;;;;5032091;28;20065;-45
2021/10/07 11:36:01;;;;;;;8.48;5.53;;;;;;;;;;5031395;28;20132;-45
2021/10/07 11:38:28;;;;;;;5.75;4.25;;;;;;;;;;5027552;28;20140;-45
2021/10/07 11:40:55;;;;;;;9.65;5.28;;;;;;;;;;5022182;28;20037;-46
2021/10/07 11:43:26;;;;;;;5.60;4.85;;;;;;;;;;5025142;28;20592;-45
2021/10/07 11:45:54;;;;;;;7.57;4.90;;;;;;;;;;5042618;28;20078;-47
2021/10/07 11:48:22;;;;;;;7.05;6.10;;;;;;;;;;5023535;28;20128;-45
2021/10/07 11:50:50;;;;;;;7.47;6.18;;;;;;;;;;5030804;28;20468;-43
2021/10/07 11:53:31;;;;;;;8.77;6.80;;;;;;;;;;5030696;28;20507;-45
2021/10/07 11:55:59;;;;;;;8.80;6.70;;;;;;;;;;5029282;28;20470;-44
2021/10/07 11:58:28;;;;;;;8.65;5.70;;;;;;;;;;5013868;28;20137;-44
2021/10/07 12:00:55;;;;;;;7.72;5.40;;;;;;;;;;5028029;28;20041;-45
2021/10/07 12:03:27;;;;;;;6.93;5.93;;;;;;;;;;5030347;28;20530;-44
2021/10/07 12:06:08;;;;;;;8.50;6.35;;;;;;;;;;5031294;28;20095;-42
2021/10/07 12:08:45;;;;;;;5.80;5.22;;;;;;;;;;5029070;28;20107;-42
2021/10/07 12:11:11;;;;;;;8.25;5.53;;;;;;;;;;5033877;28;20037;-45
2021/10/07 12:13:43;;;;;;;6.72;5.38;;;;;;;;;;5035693;28;20050;-44
2021/10/07 12:16:12;;;;;;;8.60;5.20;;;;;;;;;;5043675;28;20132;-44
2021/10/07 12:18:40;;;;;;;6.47;4.97;;;;;;;;;;5027860;28;20469;-43
2021/10/07 12:21:09;;;;;;;7.20;4.78;;;;;;;;;;5028805;28;20438;-44
2021/10/07 12:23:48;;;;;;;6.07;4.20;;;;;;;;;;5030224;28;20041;-42
2021/10/07 12:26:25;;;;;;;7.40;4.43;;;;;;;;;;5021668;28;20042;-44
2021/10/07 12:28:52;;;;;;;6.60;5.22;;;;;;;;;;5028447;28;20042;-44
2021/10/07 12:31:20;;;;;;;7.57;4.50;;;;;;;;;;5016302;28;20065;-46
2021/10/07 12:34:14;;;;;;;5.72;4.40;;;;;;;;;;5030298;28;20045;-45
2021/10/07 12:36:45;;;;;;;4.30;3.72;;;;;;;;;;5053117;28;20049;-43
2021/10/07 12:39:23;;;;;;;5.32;4.10;;;;;;;;;;5027555;28;20128;-43
2021/10/07 12:41:51;;;;;;;7.80;3.90;;;;;;;;;;5016062;28;20044;-46
2021/10/07 12:44:26;;;;;;;5.53;3.92;;;;;;;;;;5056737;23;20144;-49
2021/10/07 12:46:58;;;;;;;5.15;3.90;;;;;;;;;;5050872;28;20143;-52
2021/10/07 12:49:32;;;;;;;4.70;3.60;;;;;;;;;;5049773;28;20210;-45
2021/10/07 12:52:00;;;;;;;8.20;4.03;;;;;;;;;;5024177;28;20132;-44
2021/10/07 12:54:28;;;;;;;5.53;3.80;;;;;;;;;;5033126;28;20042;-45
2021/10/07 12:56:55;;;;;;;5.40;3.50;;;;;;;;;;5051035;28;20444;-44
2021/10/07 12:59:23;;;;;;;6.22;3.50;;;;;;;;;;5046300;28;20041;-53
2021/10/07 13:01:50;;;;;;;7.13;3.50;;;;;;;;;;5031635;28;20552;-50
2021/10/07 13:04:22;;;;;;;5.32;3.25;;;;;;;;;;5045532;28;20128;-50
2021/10/07 13:06:54;;;;;;;7.05;3.33;;;;;;;;;;5031390;28;20111;-49
2021/10/07 13:09:22;;;;;;;4.30;2.20;;;;;;;;;;5031673;28;20621;-51
2021/10/07 13:11:52;;;;;;;4.13;2.60;;;;;;;;;;5031644;28;20053;-51
2021/10/07 13:14:20;;;;;;;4.30;3.05;;;;;;;;;;5045669;28;20087;-50
2021/10/07 13:16:48;;;;;;;4.10;2.33;;;;;;;;;;5031742;28;20099;-51
2021/10/07 13:19:15;;;;;;;4.88;2.55;;;;;;;;;;5031479;28;20045;-50
2021/10/07 13:21:46;;;;;;;4.75;2.60;;;;;;;;;;5030275;28;20073;-54
2021/10/07 13:24:17;;;;;;;6.15;2.53;;;;;;;;;;5016957;28;20045;-51
2021/10/07 13:27:19;;;;;;;4.15;2.05;;;;;;;;;;5030175;28;20045;-53
2021/10/07 13:29:46;;;;;;;3.67;1.92;;;;;;;;;;5036890;28;20152;-52
2021/10/07 13:32:16;;;;;;;6.80;2.20;;;;;;;;;;5030692;28;20095;-53
2021/10/07 13:34:42;;;;;;;4.75;1.73;;;;;;;;;;5042294;28;20449;-54
2021/10/07 13:37:09;;;;;;;4.18;1.85;;;;;;;;;;5046617;28;20056;-42
2021/10/07 13:39:36;;;;;;;3.15;1.58;;;;;;;;;;5034641;28;20053;-48
2021/10/07 13:42:03;;;;;;;2.47;1.48;;;;;;;;;;5034365;28;20091;-44
2021/10/07 13:44:29;;;;;;;3.92;1.73;;;;;;;;;;5044032;28;20604;-47
2021/10/07 13:46:56;;;;;;;4.38;1.70;;;;;;;;;;5040111;28;20054;-49
2021/10/07 13:49:23;;;;;;;3.97;1.73;;;;;;;;;;5035494;28;20058;-45
2021/10/07 13:51:50;;;;;;;5.00;1.65;;;;;;;;;;5054183;28;20110;-45
2021/10/07 13:54:17;;;;;;;4.03;1.85;;;;;;;;;;5044343;28;20068;-46
2021/10/07 13:56:44;;;;;;;4.30;1.70;;;;;;;;;;5037467;28;20061;-50
2021/10/07 13:59:11;;;;;;;4.05;1.70;;;;;;;;;;5037694;28;20091;-50
2021/10/07 14:01:39;;;;;;;2.03;1.40;;;;;;;;;;5034981;28;20061;-51
2021/10/07 14:04:06;;;;;;;3.63;2.10;;;;;;;;;;5033847;28;20041;-51
2021/10/07 14:06:32;;;;;;;5.15;1.85;;;;;;;;;;5052820;28;20040;-52
2021/10/07 14:08:59;;;;;;;4.70;1.80;;;;;;;;;;5039942;28;20490;-50
2021/10/07 14:11:27;;;;;;;3.05;1.80;;;;;;;;;;5040958;28;20522;-53
2021/10/07 14:13:54;;;;;;;4.28;2.00;;;;;;;;;;5048181;28;20068;-50
2021/10/07 14:16:21;;;;;;;2.67;1.85;;;;;;;;;;5034751;28;20049;-49
2021/10/07 14:18:48;;;;;;;4.40;2.10;;;;;;;;;;5067478;28;20045;-53
2021/10/07 14:21:15;;;;;;;5.28;2.10;;;;;;;;;;5052823;28;20037;-50
2021/10/07 14:23:43;;;;;;;3.10;2.00;;;;;;;;;;5051187;28;20101;-52
2021/10/07 14:26:09;;;;;;;2.67;1.90;;;;;;;;;;5033575;28;20463;-51
2021/10/07 14:28:37;;;;;;;3.03;1.85;;;;;;;;;;5045824;28;20049;-53
2021/10/07 14:31:04;;;;;;;5.38;2.08;;;;;;;;;;5036594;28;20057;-53
2021/10/07 14:33:31;;;;;;;2.75;1.88;;;;;;;;;;5041016;28;20495;-54
2021/10/07 14:35:58;;;;;;;3.28;2.03;;;;;;;;;;5033741;28;20117;-51
2021/10/07 14:38:24;;;;;;;4.50;1.90;;;;;;;;;;5053581;28;20104;-51
2021/10/07 14:40:51;;;;;;;5.05;2.00;;;;;;;;;;5034079;28;20051;-50
2021/10/07 14:43:18;;;;;;;4.32;1.90;;;;;;;;;;5032489;28;20033;-49
2021/10/07 14:45:45;;;;;;;3.63;1.88;;;;;;;;;;5033557;28;20042;-49
2021/10/07 14:48:12;;;;;;;4.43;2.20;;;;;;;;;;5050091;28;20044;-52
2021/10/07 14:50:41;;;;;;;5.32;2.40;;;;;;;;;;5034021;28;20045;-50
2021/10/07 14:53:09;;;;;;;3.42;1.95;;;;;;;;;;5052077;28;20480;-50
2021/10/07 14:55:40;;;;;;;4.20;1.92;;;;;;;;;;5053026;28;20053;-53
2021/10/07 14:58:08;;;;;;;3.85;2.10;;;;;;;;;;5033870;28;20063;-51